NCAR-RAP Real-Time Weather Data

Output produced by METARs form (12 May 2021  12:36 UTC)
found at http://weather.rap.ucar.edu/surface/
 
KDAG 121150Z AUTO 27011KT 10SM CLR 20/M01 A2995 RMK AO2 SLP117 T02001006 10256 20200 53007 $
KDAG 121050Z AUTO 27010KT 10SM CLR 21/M01 A2994 RMK AO2 SLP113 T02111006 $
KDAG 120950Z AUTO 29011KT 10SM CLR 22/M01 A2993 RMK AO2 SLP110 T02171011 $
KDAG 120850Z AUTO 28011KT 10SM CLR 23/M01 A2993 RMK AO2 SLP110 T02281011 50005 $
KDAG 120750Z AUTO 27007KT 10SM CLR 22/M02 A2993 RMK AO2 SLP112 T02171017 403390150 $
KDAG 120650Z AUTO 30006KT 10SM CLR 24/M02 A2993 RMK AO2 SLP109 T02441017 $
KDAG 120550Z AUTO 29011KT 10SM CLR 25/M03 A2992 RMK AO2 WSHFT 0505 SLP105 T02501028 10333 20239 $
KDAG 120522Z AUTO 31005KT 10SM CLR 27/M04 A2991 RMK AO2 WSHFT 0505 T02671039 $
KDAG 120450Z AUTO 30004KT 10SM CLR 25/M09 A2989 RMK AO2 SLP096 T02501094 $
KDAG 120350Z AUTO 17003KT 10SM CLR 28/M09 A2987 RMK AO2 SLP088 T02831094 $
KDAG 120250Z AUTO 10003KT 10SM CLR 30/M08 A2984 RMK AO2 SLP082 T03001083 55001
KDAG 120150Z AUTO 06003KT 10SM CLR 32/M08 A2984 RMK AO2 SLP080 T03221083
KDAG 120050Z AUTO 08005KT 10SM CLR 33/M08 A2984 RMK AO2 SLP081 T03331083
KDAG 112350Z AUTO 01007KT 10SM CLR 34/M08 A2985 RMK AO2 SLP081 T03391083 10339 20272 56017